Millstone, West Virginia
Current Conditions -  °F | °C
As of 8:54 AM on Friday 24 Oct 2014 (Local Time) from KCRW Reporting Station
Moderate Fog Moderate Fog  
Wind Chill: 41°   Ceiling: 100
Heat Index: 41°   Visibility: 0.5mi
Dew Point: 40°   Wind: 0mph
Humidity: 96%   Direction: NA
Pressure: 30.14"   Gusts: NA
Location:  38.8°N, 81.1°W
Report Text: KCRW 241254Z 00000KT 1/2SM FG VV001 05/04 A3014 RMK AO2 SLP207 T00500044 RVRNO
Loading
Personal Weather Stations






























Interactive Weather Map
Tropical Storm Tracking
New forecast layout! Learn more

10-Day Weather Forecast

Advertisements
Track Severe Weather on mobile